Zealand Delilah — PBZI — position and weather

sailwx.info

Track history (hours):
 
Tides and Currents Weather Stations Pressure Air Temp Water Temp Dewpoint Dewpoint Depression Visibility Wind Speed Wind Dir Waves Ship Positions

Zealand Delilah

Last reported at 2017-Mar-24 23:33 UTC. Time now 2017-Mar-24 23:51 UTC.
Position N 51°15' E 004°24'.

Length 135 m; draft 6.6 m.

Type: Ship. MMSI: 245935000.

Date/timePositionNaut miles runAvg speedWind from/ knotsBaromVisibWave heightAir tempDewpointWater temp
2017-Mar-24 23:33N 51°15' E 004°24'3 3.3
2017-Mar-24 22:33N 51°17' E 004°20'2 1.7
2017-Mar-24 21:33N 51°18' E 004°18'7 7.3
2017-Mar-24 20:33N 51°24' E 004°11'12 5.9
2017-Mar-24 18:32N 51°21' E 003°52'9 9.1
2017-Mar-24 17:33N 51°26' E 003°41'9 9.3
2017-Mar-24 16:33N 51°25' E 003°26'8 8.5
2017-Mar-24 15:33N 51°24' E 003°12'9 9.3
2017-Mar-24 14:33N 51°23' E 002°58'9 9.0
2017-Mar-24 13:33N 51°22' E 002°43'6 5.8
2017-Mar-24 12:33N 51°22' E 002°34'10 9.6
2017-Mar-24 11:33N 51°19' E 002°20'1211.6
2017-Mar-24 10:33N 51°13' E 002°04'1211.8
2017-Mar-24 09:33N 51°08' E 001°47'1212.3
2017-Mar-24 08:33N 50°59' E 001°34'6210.3
2017-Mar-24 02:33N 50°21' E 000°16'1010.1
2017-Mar-24 01:33N 50°18' E 000°01'10 9.5
2017-Mar-24 00:33N 50°15' W 000°13'24 7.9
2017-Mar-23 21:33N 50°10' W 000°49'7 7.3
2017-Mar-23 20:33N 50°08' W 001°00'8 8.1
2017-Mar-23 19:33N 50°06' W 001°12'9 8.7
2017-Mar-23 18:33N 50°03' W 001°25'9 9.4
2017-Mar-23 17:33N 50°01' W 001°40'9 9.4
2017-Mar-23 16:33N 49°59' W 001°54'39 9.8
2017-Mar-23 12:33N 49°49' W 002°53'10 9.9
2017-Mar-23 11:30N 49°44' W 003°07'  
2017-Mar-18 22:33N 39°20' W 009°48'10 9.8
2017-Mar-18 21:33N 39°10' W 009°50'10 9.6
2017-Mar-18 20:33N 39°01' W 009°51'10 9.8
2017-Mar-18 19:33N 38°51' W 009°52'10 9.6
2017-Mar-18 18:33N 38°41' W 009°51'10 9.6
2017-Mar-18 17:33N 38°32' W 009°48'10 9.7
2017-Mar-18 16:33N 38°23' W 009°45'10 9.9
2017-Mar-18 15:33N 38°13' W 009°42'1010.1
2017-Mar-18 14:33N 38°03' W 009°39'1010.4
2017-Mar-18 13:33N 37°53' W 009°36'1010.1
2017-Mar-18 12:33N 37°43' W 009°33'1010.0
2017-Mar-18 11:33N 37°33' W 009°31'1210.3
2017-Mar-18 10:24N 37°22' W 009°28'910.2
2017-Mar-18 09:32N 37°13' W 009°25'38 9.4
2017-Mar-18 05:27N 36°41' W 008°58'16211.6
2017-Mar-17 15:25N 35°58' W 005°44'1112.9
2017-Mar-17 14:33N 35°59' W 005°30'1212.0
2017-Mar-17 13:33N 36°02' W 005°16'232 5.0
2017-Mar-15 15:21N 37°32' W 000°48'911.7
2017-Mar-15 14:33N 37°33' W 000°37'1111.1
2017-Mar-15 13:33N 37°41' W 000°27'14411.1
2017-Mar-15 00:33N 39°52' E 000°51'1211.7
2017-Mar-14 23:33N 40°03' E 000°54'  
Track history (hours):
 
Tides and Currents Weather Stations Pressure Air Temp Water Temp Dewpoint Dewpoint Depression Visibility Wind Speed Wind Dir Waves Ship Positions

Zealand Delilah

Last reported at 2017-Mar-24 23:33 UTC. Time now 2017-Mar-24 23:51 UTC.
Position N 51°15' E 004°24'.

Length 135 m; draft 6.6 m.

Type: Ship. MMSI: 245935000.

Date/timePositionNaut miles runAvg speedWind from/ knotsBaromVisibWave heightAir tempDewpointWater temp
2017-Mar-24 23:33N 51°15' E 004°24'3 3.3
2017-Mar-24 22:33N 51°17' E 004°20'2 1.7
2017-Mar-24 21:33N 51°18' E 004°18'7 7.3
2017-Mar-24 20:33N 51°24' E 004°11'12 5.9
2017-Mar-24 18:32N 51°21' E 003°52'9 9.1
2017-Mar-24 17:33N 51°26' E 003°41'9 9.3
2017-Mar-24 16:33N 51°25' E 003°26'8 8.5
2017-Mar-24 15:33N 51°24' E 003°12'9 9.3
2017-Mar-24 14:33N 51°23' E 002°58'9 9.0
2017-Mar-24 13:33N 51°22' E 002°43'6 5.8
2017-Mar-24 12:33N 51°22' E 002°34'10 9.6
2017-Mar-24 11:33N 51°19' E 002°20'1211.6
2017-Mar-24 10:33N 51°13' E 002°04'1211.8
2017-Mar-24 09:33N 51°08' E 001°47'1212.3
2017-Mar-24 08:33N 50°59' E 001°34'6210.3
2017-Mar-24 02:33N 50°21' E 000°16'1010.1
2017-Mar-24 01:33N 50°18' E 000°01'10 9.5
2017-Mar-24 00:33N 50°15' W 000°13'24 7.9
2017-Mar-23 21:33N 50°10' W 000°49'7 7.3
2017-Mar-23 20:33N 50°08' W 001°00'8 8.1
2017-Mar-23 19:33N 50°06' W 001°12'9 8.7
2017-Mar-23 18:33N 50°03' W 001°25'9 9.4
2017-Mar-23 17:33N 50°01' W 001°40'9 9.4
2017-Mar-23 16:33N 49°59' W 001°54'39 9.8
2017-Mar-23 12:33N 49°49' W 002°53'10 9.9
2017-Mar-23 11:30N 49°44' W 003°07'  
2017-Mar-18 22:33N 39°20' W 009°48'10 9.8
2017-Mar-18 21:33N 39°10' W 009°50'10 9.6
2017-Mar-18 20:33N 39°01' W 009°51'10 9.8
2017-Mar-18 19:33N 38°51' W 009°52'10 9.6
2017-Mar-18 18:33N 38°41' W 009°51'10 9.6
2017-Mar-18 17:33N 38°32' W 009°48'10 9.7
2017-Mar-18 16:33N 38°23' W 009°45'10 9.9
2017-Mar-18 15:33N 38°13' W 009°42'1010.1
2017-Mar-18 14:33N 38°03' W 009°39'1010.4
2017-Mar-18 13:33N 37°53' W 009°36'1010.1
2017-Mar-18 12:33N 37°43' W 009°33'1010.0
2017-Mar-18 11:33N 37°33' W 009°31'1210.3
2017-Mar-18 10:24N 37°22' W 009°28'910.2
2017-Mar-18 09:32N 37°13' W 009°25'38 9.4
2017-Mar-18 05:27N 36°41' W 008°58'16211.6
2017-Mar-17 15:25N 35°58' W 005°44'1112.9
2017-Mar-17 14:33N 35°59' W 005°30'1212.0
2017-Mar-17 13:33N 36°02' W 005°16'232 5.0
2017-Mar-15 15:21N 37°32' W 000°48'911.7
2017-Mar-15 14:33N 37°33' W 000°37'1111.1
2017-Mar-15 13:33N 37°41' W 000°27'14411.1
2017-Mar-15 00:33N 39°52' E 000°51'1211.7
2017-Mar-14 23:33N 40°03' E 000°54'  

Dump ship's entire track history